createdAt,value
2018-03-24T00:01:14.175Z,14.83
2018-03-24T00:03:41.638Z,14.03
2018-03-24T00:06:09.097Z,15.13
2018-03-24T00:08:36.562Z,16.50
2018-03-24T00:11:04.037Z,16.50
2018-03-24T00:13:32.297Z,18.43
2018-03-24T00:15:59.767Z,17.90
2018-03-24T00:18:27.994Z,17.67
2018-03-24T00:20:55.459Z,18.13
2018-03-24T00:23:22.915Z,17.67
2018-03-24T00:25:50.610Z,16.90
2018-03-24T00:28:19.136Z,16.07
2018-03-24T00:30:46.599Z,15.83
2018-03-24T00:33:14.071Z,16.17
2018-03-24T00:35:41.528Z,15.87
2018-03-24T00:38:08.998Z,16.00
2018-03-24T00:40:36.670Z,16.50
2018-03-24T00:43:04.136Z,16.73
2018-03-24T00:45:33.262Z,15.77
2018-03-24T00:48:00.733Z,16.33
2018-03-24T00:50:28.207Z,16.93
2018-03-24T00:52:55.878Z,16.97
2018-03-24T00:55:23.349Z,17.10
2018-03-24T00:57:50.802Z,17.43
2018-03-24T01:00:18.282Z,17.30
2018-03-24T01:02:45.753Z,17.30
2018-03-24T01:05:13.982Z,16.77
2018-03-24T01:07:41.458Z,16.27
2018-03-24T01:10:08.922Z,17.47
2018-03-24T01:12:36.639Z,17.90
2018-03-24T01:15:04.106Z,17.27
2018-03-24T01:17:31.563Z,18.80
2018-03-24T01:19:59.032Z,18.03
2018-03-24T01:22:26.722Z,17.53
2018-03-24T01:24:54.187Z,18.27
2018-03-24T01:27:22.815Z,17.70
2018-03-24T01:29:50.278Z,18.00
2018-03-24T01:32:17.750Z,17.40
2018-03-24T01:34:45.208Z,19.00
2018-03-24T01:37:12.678Z,18.63
2018-03-24T01:39:40.146Z,17.87
2018-03-24T01:42:07.619Z,19.50
2018-03-24T01:44:36.137Z,18.67
2018-03-24T01:47:03.615Z,20.10
2018-03-24T01:49:31.066Z,18.93
2018-03-24T01:51:58.546Z,19.97
2018-03-24T01:54:26.021Z,21.00
2018-03-24T01:56:53.484Z,18.97
2018-03-24T01:59:21.716Z,20.23
2018-03-24T02:01:49.182Z,19.87
2018-03-24T02:04:16.922Z,18.50
2018-03-24T02:06:44.387Z,19.60
2018-03-24T02:09:11.871Z,20.20
2018-03-24T02:11:39.343Z,20.00
2018-03-24T02:14:06.803Z,19.10
2018-03-24T02:16:34.272Z,20.27
2018-03-24T02:19:02.498Z,20.40
2018-03-24T02:21:44.851Z,19.67
2018-03-24T02:24:13.290Z,21.20
2018-03-24T02:26:40.773Z,20.40
2018-03-24T02:29:08.245Z,20.53
2018-03-24T02:31:35.786Z,21.07
2018-03-24T02:34:03.254Z,20.87
2018-03-24T02:36:30.969Z,21.37
2018-03-24T02:38:58.442Z,20.73
2018-03-24T02:41:25.906Z,21.13
2018-03-24T02:43:53.375Z,20.47
2018-03-24T02:46:21.054Z,22.27
2018-03-24T02:48:48.541Z,20.20
2018-03-24T02:51:16.004Z,20.40
2018-03-24T02:53:43.460Z,20.10
2018-03-24T02:56:10.929Z,20.53
2018-03-24T02:58:38.694Z,20.43
2018-03-24T03:01:06.160Z,23.33
2018-03-24T03:03:33.630Z,22.60
2018-03-24T03:06:02.086Z,22.43
2018-03-24T03:08:29.566Z,22.73
2018-03-24T03:10:57.418Z,23.40
2018-03-24T03:13:25.181Z,21.97
2018-03-24T03:15:52.655Z,22.00
2018-03-24T03:18:20.338Z,21.13
2018-03-24T03:20:48.063Z,20.77
2018-03-24T03:23:15.528Z,20.93
2018-03-24T03:25:43.218Z,21.70
2018-03-24T03:28:10.907Z,20.53
2018-03-24T03:30:44.739Z,20.90
2018-03-24T03:33:12.217Z,20.17
2018-03-24T03:35:39.685Z,21.07
2018-03-24T03:38:07.531Z,20.97
2018-03-24T03:40:34.997Z,21.67
2018-03-24T03:43:02.472Z,19.30
2018-03-24T03:45:29.931Z,20.63
2018-03-24T03:47:57.400Z,20.83
2018-03-24T03:50:24.851Z,22.27
2018-03-24T03:52:52.579Z,21.60
2018-03-24T03:55:20.044Z,21.23
2018-03-24T03:57:47.518Z,21.70
2018-03-24T04:00:14.985Z,22.90
2018-03-24T04:02:43.741Z,21.30
2018-03-24T04:05:11.213Z,20.47
2018-03-24T04:07:38.674Z,20.07
2018-03-24T04:10:06.826Z,20.93
2018-03-24T04:12:34.598Z,22.90
2018-03-24T04:15:02.066Z,23.63
2018-03-24T04:17:29.816Z,25.00
2018-03-24T04:19:57.579Z,24.53
2018-03-24T04:22:25.041Z,23.93
2018-03-24T04:24:52.502Z,23.07
2018-03-24T04:27:19.973Z,25.83
2018-03-24T04:29:47.426Z,25.13
2018-03-24T04:32:14.890Z,25.33
2018-03-24T04:34:42.355Z,24.90
2018-03-24T04:37:10.030Z,23.60
2018-03-24T04:39:37.497Z,24.73
2018-03-24T04:42:05.730Z,21.67
2018-03-24T04:44:33.196Z,23.13
2018-03-24T04:47:00.645Z,22.57
2018-03-24T04:49:28.110Z,20.63
2018-03-24T04:51:55.573Z,21.50
2018-03-24T04:54:23.209Z,21.33
2018-03-24T04:56:50.673Z,21.00
2018-03-24T04:59:18.137Z,20.60
2018-03-24T05:01:45.604Z,20.23
2018-03-24T05:04:13.069Z,20.57
2018-03-24T05:06:40.535Z,22.30
2018-03-24T05:09:08.299Z,20.67
2018-03-24T05:11:35.770Z,21.13
2018-03-24T05:14:03.272Z,20.63
2018-03-24T05:16:30.734Z,20.57
2018-03-24T05:18:58.206Z,20.20
2018-03-24T05:21:26.423Z,20.17
2018-03-24T05:23:54.651Z,19.73
2018-03-24T05:26:22.110Z,19.37
2018-03-24T05:28:49.928Z,20.43
2018-03-24T05:31:17.338Z,20.17
2018-03-24T05:33:44.795Z,20.73
2018-03-24T05:36:12.267Z,20.53
2018-03-24T05:38:39.730Z,20.10
2018-03-24T05:41:07.451Z,20.60
2018-03-24T05:43:34.915Z,20.83
2018-03-24T05:46:02.391Z,21.07
2018-03-24T05:48:30.137Z,21.40
2018-03-24T05:50:57.556Z,21.30
2018-03-24T05:53:25.246Z,21.90
2018-03-24T05:55:53.013Z,22.30
2018-03-24T05:58:20.483Z,23.17
2018-03-24T06:00:47.942Z,24.07
2018-03-24T06:03:15.694Z,25.20
2018-03-24T06:05:43.558Z,24.73
2018-03-24T06:08:11.012Z,24.97
2018-03-24T06:10:38.485Z,25.07
2018-03-24T06:13:06.233Z,24.37
2018-03-24T06:15:33.723Z,26.47
2018-03-24T06:18:01.199Z,26.37
2018-03-24T06:20:28.658Z,24.87
2018-03-24T06:22:56.902Z,25.90
2018-03-24T06:25:24.362Z,24.93
2018-03-24T06:27:51.821Z,25.63
2018-03-24T06:33:22.208Z,25.63
2018-03-24T06:35:50.281Z,26.10
2018-03-24T06:38:17.828Z,25.17
2018-03-24T06:40:46.233Z,25.57
2018-03-24T06:43:13.818Z,24.80
2018-03-24T06:45:41.350Z,24.23
2018-03-24T06:48:08.902Z,23.67
2018-03-24T06:50:36.441Z,23.60
2018-03-24T06:53:04.808Z,22.87
2018-03-24T06:55:33.145Z,22.07
2018-03-24T06:58:00.696Z,21.90
2018-03-24T07:00:28.248Z,20.27
2018-03-24T07:02:55.781Z,20.77
2018-03-24T07:05:23.341Z,19.63
2018-03-24T07:07:50.887Z,20.17
2018-03-24T07:10:18.444Z,18.33
2018-03-24T07:12:46.900Z,17.73
2018-03-24T07:15:15.299Z,17.53
2018-03-24T07:17:43.194Z,17.10
2018-03-24T07:20:10.862Z,17.50
2018-03-24T07:22:38.424Z,16.90
2018-03-24T07:25:05.958Z,16.50
2018-03-24T07:27:33.507Z,16.33
2018-03-24T07:30:01.056Z,14.57
2018-03-24T07:32:28.632Z,15.57
2018-03-24T07:34:56.199Z,15.73
2018-03-24T07:37:23.762Z,14.30
2018-03-24T07:39:51.316Z,14.03
2018-03-24T07:42:18.858Z,12.80
2018-03-24T07:44:46.417Z,13.87
2018-03-24T07:47:13.954Z,13.27
2018-03-24T07:49:42.277Z,13.67
2018-03-24T07:52:09.825Z,12.63
2018-03-24T07:54:37.360Z,11.17
2018-03-24T07:57:04.911Z,11.40
2018-03-24T07:59:32.481Z,12.07
2018-03-24T08:02:00.068Z,12.97
2018-03-24T08:04:27.609Z,12.63
2018-03-24T08:06:55.185Z,12.93
2018-03-24T08:09:22.731Z,12.40
2018-03-24T08:11:50.275Z,12.27
2018-03-24T08:14:17.832Z,12.77
2018-03-24T08:16:45.387Z,12.83
2018-03-24T08:19:12.963Z,12.60
2018-03-24T08:21:40.468Z,12.57
2018-03-24T08:24:08.615Z,11.10
2018-03-24T08:26:36.219Z,10.93
2018-03-24T08:29:04.542Z,12.13
2018-03-24T08:31:32.112Z,11.93
2018-03-24T08:33:59.620Z,12.10
2018-03-24T08:36:27.165Z,10.50
2018-03-24T08:38:55.444Z,10.30
2018-03-24T08:41:23.719Z,11.20
2018-03-24T08:43:52.000Z,11.30
2018-03-24T08:46:19.518Z,10.70
2018-03-24T08:48:47.056Z,9.67
2018-03-24T08:51:14.567Z,9.27
2018-03-24T08:53:42.844Z,9.63
2018-03-24T08:56:10.369Z,8.73
2018-03-24T08:58:37.877Z,8.33
2018-03-24T09:01:05.375Z,8.03
2018-03-24T09:03:32.974Z,8.33
2018-03-24T09:06:00.470Z,8.80
2018-03-24T09:08:28.085Z,8.17
2018-03-24T09:10:57.266Z,8.23
2018-03-24T09:13:25.548Z,7.50
2018-03-24T09:15:53.135Z,7.20
2018-03-24T09:18:20.674Z,8.13
2018-03-24T09:20:48.938Z,8.70
2018-03-24T09:23:17.201Z,8.33
2018-03-24T09:25:44.780Z,6.60
2018-03-24T09:28:13.099Z,7.20
2018-03-24T09:30:40.619Z,7.10
2018-03-24T09:33:09.163Z,7.87
2018-03-24T09:35:37.491Z,7.20
2018-03-24T09:38:05.001Z,7.33
2018-03-24T09:40:32.510Z,8.00
2018-03-24T09:43:00.049Z,7.50
2018-03-24T09:45:27.566Z,6.73
2018-03-24T09:47:55.083Z,6.90
2018-03-24T09:50:22.589Z,7.07
2018-03-24T09:52:50.938Z,7.83
2018-03-24T09:55:18.401Z,7.60
2018-03-24T09:57:45.920Z,8.10
2018-03-24T10:00:13.424Z,7.00
2018-03-24T10:02:40.922Z,7.57
2018-03-24T10:05:08.459Z,7.67
2018-03-24T10:07:36.734Z,7.77
2018-03-24T10:10:05.010Z,8.20
2018-03-24T10:12:33.304Z,7.87
2018-03-24T10:15:00.859Z,8.00
2018-03-24T10:17:28.376Z,9.23
2018-03-24T10:19:55.890Z,9.03
2018-03-24T10:22:44.003Z,9.87
2018-03-24T10:25:12.316Z,9.80
2018-03-24T10:27:39.936Z,10.23
2018-03-24T10:30:08.244Z,10.03
2018-03-24T10:32:35.744Z,10.97
2018-03-24T10:35:08.555Z,10.93
2018-03-24T10:37:41.782Z,10.77
2018-03-24T10:40:09.343Z,10.53
2018-03-24T10:42:36.856Z,10.77
2018-03-24T10:45:05.136Z,11.03
2018-03-24T10:47:32.666Z,11.30
2018-03-24T10:50:00.194Z,10.53
2018-03-24T10:52:27.696Z,11.63
2018-03-24T10:54:57.946Z,9.93
2018-03-24T10:57:25.476Z,10.60
2018-03-24T10:59:54.720Z,10.43
2018-03-24T11:02:22.248Z,10.43
2018-03-24T11:04:49.759Z,10.50
2018-03-24T11:07:17.275Z,11.83
2018-03-24T11:09:44.795Z,11.53
2018-03-24T11:12:13.072Z,9.77
2018-03-24T11:14:48.284Z,10.70
2018-03-24T11:17:15.791Z,11.00
2018-03-24T11:19:43.290Z,10.27
2018-03-24T11:22:10.790Z,10.57
2018-03-24T11:24:39.084Z,12.40
2018-03-24T11:27:06.592Z,13.27
2018-03-24T11:29:34.118Z,12.83
2018-03-24T11:32:01.687Z,13.77
2018-03-24T11:34:29.223Z,11.83
2018-03-24T11:36:57.552Z,11.70
2018-03-24T11:39:25.073Z,12.63
2018-03-24T11:41:52.583Z,11.20
2018-03-24T11:44:20.884Z,12.47
2018-03-24T11:46:48.418Z,12.03
2018-03-24T11:49:16.681Z,12.93
2018-03-24T11:51:44.963Z,13.27
2018-03-24T11:54:13.250Z,11.37
2018-03-24T11:56:40.786Z,11.80
2018-03-24T11:59:08.338Z,11.23
2018-03-24T12:01:36.624Z,11.30
2018-03-24T12:04:04.894Z,10.73
2018-03-24T12:06:33.163Z,10.30
2018-03-24T12:09:01.455Z,10.27
2018-03-24T12:11:28.988Z,11.87
2018-03-24T12:13:56.558Z,12.13
2018-03-24T12:16:24.845Z,11.57
2018-03-24T12:18:52.395Z,12.53
2018-03-24T12:21:20.775Z,12.23
2018-03-24T12:23:49.078Z,11.43
2018-03-24T12:26:16.597Z,10.23
2018-03-24T12:28:44.887Z,10.93
2018-03-24T12:31:13.206Z,12.00
2018-03-24T12:33:40.716Z,11.43
2018-03-24T12:36:08.278Z,11.37
2018-03-24T12:38:35.820Z,11.70
2018-03-24T12:41:03.354Z,11.20
2018-03-24T12:43:30.866Z,11.83
2018-03-24T12:45:58.414Z,12.40
2018-03-24T12:48:25.948Z,26.00
2018-03-24T12:50:54.287Z,11.70
2018-03-24T12:53:21.894Z,15.83
2018-03-24T12:55:50.266Z,10.83
2018-03-24T12:58:18.546Z,11.73
2018-03-24T13:00:46.103Z,11.93
2018-03-24T13:03:14.375Z,11.30
2018-03-24T13:05:42.711Z,13.87
2018-03-24T13:08:10.222Z,12.60
2018-03-24T13:10:37.800Z,14.83
2018-03-24T13:13:05.372Z,13.87
2018-03-24T13:15:32.906Z,10.97
2018-03-24T13:18:00.439Z,10.97
2018-03-24T13:20:28.718Z,11.43
2018-03-24T13:22:56.240Z,11.37
2018-03-24T13:25:23.751Z,12.57
2018-03-24T13:27:51.322Z,12.80
2018-03-24T13:30:18.833Z,12.63
2018-03-24T13:32:47.123Z,12.50
2018-03-24T13:35:15.599Z,13.00
2018-03-24T13:37:43.914Z,12.33
2018-03-24T13:40:11.474Z,13.63
2018-03-24T13:42:40.333Z,12.37
2018-03-24T13:45:07.883Z,11.47
2018-03-24T13:47:35.407Z,11.27
2018-03-24T13:50:03.720Z,12.40
2018-03-24T13:52:32.007Z,12.27
2018-03-24T13:54:59.513Z,12.30
2018-03-24T13:57:27.039Z,14.60
2018-03-24T13:59:54.547Z,12.60
2018-03-24T14:02:22.839Z,11.70
2018-03-24T14:04:51.189Z,13.80
2018-03-24T14:07:18.722Z,13.40
2018-03-24T14:09:46.249Z,14.17
2018-03-24T14:12:14.552Z,13.80
2018-03-24T14:14:42.071Z,13.27
2018-03-24T14:17:09.617Z,11.87
2018-03-24T14:19:37.954Z,12.10
2018-03-24T14:22:05.424Z,13.73
2018-03-24T14:24:32.943Z,13.93
2018-03-24T14:27:00.464Z,13.87
2018-03-24T14:29:28.815Z,13.33
2018-03-24T14:31:56.359Z,12.23
2018-03-24T14:34:23.855Z,12.47
2018-03-24T14:36:52.139Z,13.57
2018-03-24T14:39:19.652Z,14.27
2018-03-24T14:41:47.158Z,14.23
2018-03-24T14:44:14.674Z,13.73
2018-03-24T14:46:42.175Z,14.60
2018-03-24T14:49:09.704Z,14.73
2018-03-24T14:51:37.987Z,13.80
2018-03-24T14:54:06.284Z,14.47
2018-03-24T14:56:33.801Z,14.80
2018-03-24T14:59:01.341Z,15.50
2018-03-24T15:01:29.644Z,16.43
2018-03-24T15:03:57.838Z,15.43
2018-03-24T15:06:26.081Z,14.87
2018-03-24T15:08:54.208Z,14.20
2018-03-24T15:11:23.169Z,14.60
2018-03-24T15:13:51.311Z,14.33
2018-03-24T15:16:19.523Z,15.10
2018-03-24T15:18:47.498Z,14.77
2018-03-24T15:21:15.459Z,14.93
2018-03-24T15:23:43.519Z,14.97
2018-03-24T15:26:11.659Z,14.77
2018-03-24T15:31:52.201Z,15.37
2018-03-24T15:34:31.845Z,15.37
2018-03-24T15:36:59.857Z,15.77
2018-03-24T15:39:27.840Z,16.80
2018-03-24T15:41:55.757Z,16.03
2018-03-24T15:44:23.323Z,17.00
2018-03-24T15:46:50.849Z,17.03
2018-03-24T15:49:18.393Z,17.20
2018-03-24T15:51:45.927Z,16.93
2018-03-24T15:54:13.499Z,17.93
2018-03-24T15:56:41.063Z,17.03
2018-03-24T15:59:08.580Z,15.97
2018-03-24T16:01:36.102Z,17.43
2018-03-24T16:04:03.717Z,16.90
2018-03-24T16:06:31.260Z,17.00
2018-03-24T16:08:58.798Z,17.20
2018-03-24T16:11:26.305Z,17.73
2018-03-24T16:13:54.602Z,17.77
2018-03-24T16:16:22.212Z,17.53
2018-03-24T16:18:50.570Z,17.93
2018-03-24T16:21:18.077Z,17.67
2018-03-24T16:23:45.599Z,16.53
2018-03-24T16:26:13.130Z,18.70
2018-03-24T16:28:40.652Z,18.10
2018-03-24T16:31:08.216Z,17.17
2018-03-24T16:33:35.722Z,17.27
2018-03-24T16:36:03.255Z,16.90
2018-03-24T16:38:30.806Z,17.13
2018-03-24T16:40:58.438Z,18.27
2018-03-24T16:43:26.086Z,17.37
2018-03-24T16:45:54.499Z,17.80
2018-03-24T16:48:22.019Z,17.37
2018-03-24T16:50:49.591Z,17.43
2018-03-24T16:53:17.147Z,18.87
2018-03-24T16:55:44.684Z,17.80
2018-03-24T16:58:12.981Z,17.03
2018-03-24T17:00:40.530Z,17.37
2018-03-24T17:03:08.062Z,17.00
2018-03-24T17:05:35.589Z,18.30
2018-03-24T17:08:03.108Z,18.63
2018-03-24T17:10:30.703Z,17.87
2018-03-24T17:12:58.210Z,17.23
2018-03-24T17:15:26.485Z,17.63
2018-03-24T17:17:54.772Z,17.07
2018-03-24T17:20:22.328Z,18.30
2018-03-24T17:22:50.614Z,16.57
2018-03-24T17:25:18.138Z,17.07
2018-03-24T17:27:45.715Z,16.87
2018-03-24T17:30:14.001Z,18.00
2018-03-24T17:32:41.526Z,17.33
2018-03-24T17:35:09.035Z,18.20
2018-03-24T17:37:36.545Z,17.13
2018-03-24T17:40:04.095Z,17.70
2018-03-24T17:42:31.650Z,17.37
2018-03-24T17:44:59.179Z,17.87
2018-03-24T17:47:26.708Z,17.60
2018-03-24T17:49:54.231Z,17.80
2018-03-24T17:52:21.774Z,17.10
2018-03-24T17:54:49.399Z,18.20
2018-03-24T17:57:16.960Z,18.20
2018-03-24T17:59:44.486Z,19.10
2018-03-24T18:02:12.025Z,19.60
2018-03-24T18:04:40.353Z,19.27
2018-03-24T18:07:07.911Z,17.53
2018-03-24T18:09:35.419Z,18.40
2018-03-24T18:12:03.700Z,18.47
2018-03-24T18:14:32.004Z,19.37
2018-03-24T18:16:59.587Z,18.40
2018-03-24T18:19:27.135Z,19.20
2018-03-24T18:21:54.679Z,18.80
2018-03-24T18:24:22.973Z,20.03
2018-03-24T18:26:50.492Z,19.20
2018-03-24T18:29:18.067Z,19.63
2018-03-24T18:31:45.599Z,17.97
2018-03-24T18:34:13.149Z,19.97
2018-03-24T18:36:41.443Z,20.63
2018-03-24T18:39:08.967Z,20.97
2018-03-24T18:41:36.487Z,26.37
2018-03-24T18:44:04.007Z,27.60
2018-03-24T18:46:31.549Z,25.40
2018-03-24T18:48:59.102Z,21.63
2018-03-24T18:51:27.430Z,20.37
2018-03-24T18:53:54.974Z,19.87
2018-03-24T18:56:22.518Z,27.57
2018-03-24T18:58:50.100Z,22.63
2018-03-24T19:01:17.622Z,20.70
2018-03-24T19:03:45.147Z,20.33
2018-03-24T19:06:12.688Z,19.23
2018-03-24T19:08:40.199Z,19.17
2018-03-24T19:11:07.727Z,19.23
2018-03-24T19:13:35.291Z,20.27
2018-03-24T19:16:02.852Z,20.33
2018-03-24T19:18:31.186Z,21.03
2018-03-24T19:20:58.744Z,19.37
2018-03-24T19:23:26.283Z,20.87
2018-03-24T19:25:53.836Z,21.57
2018-03-24T19:28:21.422Z,20.33
2018-03-24T19:30:48.968Z,21.00
2018-03-24T19:33:16.534Z,21.17
2018-03-24T19:35:44.054Z,21.53
2018-03-24T19:38:12.463Z,20.03
2018-03-24T19:40:40.841Z,20.03
2018-03-24T19:43:08.406Z,19.93
2018-03-24T19:45:35.950Z,20.23
2018-03-24T19:48:03.501Z,20.63
2018-03-24T19:50:31.068Z,19.57
2018-03-24T19:52:58.603Z,19.83
2018-03-24T19:55:26.151Z,19.97
2018-03-24T19:57:53.738Z,20.17
2018-03-24T20:00:21.325Z,19.10
2018-03-24T20:02:48.864Z,20.27
2018-03-24T20:05:16.517Z,20.67
2018-03-24T20:07:44.199Z,20.23
2018-03-24T20:10:11.788Z,20.43
2018-03-24T20:12:40.100Z,22.27
2018-03-24T20:15:07.739Z,20.47
2018-03-24T20:17:36.099Z,20.23
2018-03-24T20:20:03.647Z,19.80
2018-03-24T20:22:31.943Z,20.30
2018-03-24T20:25:00.253Z,19.53
2018-03-24T20:27:27.818Z,20.70
2018-03-24T20:29:55.355Z,20.87
2018-03-24T20:32:22.945Z,19.57
2018-03-24T20:34:50.484Z,20.63
2018-03-24T20:37:18.012Z,19.83
2018-03-24T20:39:46.327Z,20.07
2018-03-24T20:42:13.842Z,21.00
2018-03-24T20:44:42.149Z,20.23
2018-03-24T20:47:09.685Z,19.83
2018-03-24T20:49:37.244Z,20.53
2018-03-24T20:52:04.796Z,18.67
2018-03-24T20:54:32.376Z,19.27
2018-03-24T20:56:59.941Z,21.17
2018-03-24T20:59:27.455Z,21.43
2018-03-24T21:01:55.780Z,20.23
2018-03-24T21:04:23.366Z,19.73
2018-03-24T21:06:50.907Z,19.90
2018-03-24T21:09:18.468Z,20.27
2018-03-24T21:11:45.988Z,20.40
2018-03-24T21:14:13.568Z,20.60
2018-03-24T21:16:41.129Z,21.67
2018-03-24T21:19:08.702Z,19.87
2018-03-24T21:21:36.226Z,21.07
2018-03-24T21:24:03.816Z,21.57
2018-03-24T21:26:31.387Z,20.37
2018-03-24T21:28:59.019Z,19.50
2018-03-24T21:31:26.595Z,19.70
2018-03-24T21:33:54.121Z,19.63
2018-03-24T21:36:21.681Z,19.50
2018-03-24T21:38:49.250Z,20.47
2018-03-24T21:41:16.770Z,19.60
2018-03-24T21:43:44.395Z,19.93
2018-03-24T21:46:11.978Z,19.90
2018-03-24T21:48:40.287Z,21.43
2018-03-24T21:51:07.804Z,19.90
2018-03-24T21:53:36.104Z,20.77
2018-03-24T21:56:03.643Z,21.70
2018-03-24T21:58:31.948Z,20.43
2018-03-24T22:01:00.132Z,20.73
2018-03-24T22:03:27.700Z,20.33
2018-03-24T22:05:55.238Z,20.07
2018-03-24T22:08:22.976Z,20.47
2018-03-24T22:10:51.286Z,19.73
2018-03-24T22:13:18.968Z,21.03
2018-03-24T22:15:46.503Z,21.10
2018-03-24T22:18:14.031Z,22.47
2018-03-24T22:20:42.331Z,21.73
2018-03-24T22:23:09.959Z,20.07
2018-03-24T22:25:38.248Z,22.50
2018-03-24T22:28:05.814Z,20.63
2018-03-24T22:30:33.381Z,20.83
2018-03-24T22:33:00.963Z,20.80
2018-03-24T22:35:28.504Z,18.87
2018-03-24T22:37:56.133Z,18.87
2018-03-24T22:40:23.771Z,19.87
2018-03-24T22:42:52.118Z,19.67
2018-03-24T22:45:19.695Z,19.00
2018-03-24T22:47:47.244Z,18.80
2018-03-24T22:50:14.897Z,20.20
2018-03-24T22:52:42.465Z,18.37
2018-03-24T22:55:10.008Z,18.90
2018-03-24T22:57:37.560Z,18.47
2018-03-24T23:00:06.062Z,18.13
2018-03-24T23:02:33.602Z,18.13
2018-03-24T23:05:01.147Z,18.13
2018-03-24T23:07:28.682Z,18.57
2018-03-24T23:09:56.998Z,19.57
2018-03-24T23:12:24.605Z,18.77
2018-03-24T23:14:52.168Z,19.70
2018-03-24T23:17:19.697Z,18.33
2018-03-24T23:19:47.224Z,17.67
2018-03-24T23:22:14.749Z,18.77
2018-03-24T23:24:42.321Z,18.50
2018-03-24T23:27:09.872Z,17.63
2018-03-24T23:29:37.444Z,18.27
2018-03-24T23:32:05.099Z,17.87
2018-03-24T23:34:32.703Z,18.33
2018-03-24T23:37:00.237Z,18.83
2018-03-24T23:39:27.754Z,17.70
2018-03-24T23:41:55.264Z,17.97
2018-03-24T23:44:22.847Z,18.33
2018-03-24T23:46:50.351Z,16.90
2018-03-24T23:49:17.904Z,17.13
2018-03-24T23:51:45.418Z,17.47
2018-03-24T23:54:13.688Z,16.50
2018-03-24T23:56:41.214Z,16.97
2018-03-24T23:59:08.730Z,17.90
